Altona, Canada
Current Conditions -  °F | °C
As of 7:15 PM on Friday 28 Nov 2014 (Local Time) from K2C8 Reporting Station
Overcast Overcast  
Wind Chill:   Ceiling: 2600
Heat Index: 16°   Visibility: 10mi
Dew Point: 10°   Wind: 12mph
Humidity: 79%   Direction: 150°SSE
Pressure: 29.68"   Gusts: NA
Location:  49.1°N, 97.57°W
Report Text: K2C8 290115Z AUTO 15010KT 10SM OVC026 M09/M12 A2968 RMK AO2
Loading
Personal Weather Stations






























Interactive Weather Map New forecast layout! Learn more

10-Day Weather Forecast

Advertisements
Track Severe Weather on mobile